KSJN/SJN METAR and TAF weather

Enter ICAO airport designator
Station Type Date Time Source
KSJN METAR 2019/04/20 17:54 UTC NOAA

KSJN 201754Z AUTO 26018G30KT 10SM CLR 24/M08 A3000 RMK AO2 PK WND 24030/1751 SLP077 T02391083 10239 20067 58011


Station Type Date Time Source
KSJN Decoded METAR 2019/04/20 17:54 UTC NOAA

ST JOHNS INDUSTRIAL AIRPRK, AZ, United States (KSJN) 34-31N 109-23W 1745M
Apr 20, 2019 - 01:54 PM EDT / 2019.04.20 1754 UTC
Wind: from the W (260 degrees) at 21 MPH (18 KT) gusting to 35 MPH (30 KT):0
Visibility: 10 mile(s):0
Sky conditions: clear
Temperature: 75.0 F (23.9 C)
Dew Point: 17.1 F (-8.3 C)
Relative Humidity: 11%
Pressure (altimeter): 30 in. Hg (1015 hPa)
Pressure tendency: 0.03 inches (1.1 hPa) lower than three hours ago
ob: KSJN 201754Z AUTO 26018G30KT 10SM CLR 24/M08 A3000 RMK AO2 PK WND 24030/1751 SLP077 T02391083 10239 20067 58011
cycle: 18

Station Type Date Time Source
KSJN TAF UTC NOAA

Error!

Example: see airport list